createdAt,value
2019-02-12T00:06:16.470Z,64.10
2019-02-12T00:16:18.489Z,73.20
2019-02-12T00:26:20.509Z,62.90
2019-02-12T00:36:21.800Z,62.90
2019-02-12T00:46:23.845Z,68.00
2019-02-12T00:56:25.116Z,67.90
2019-02-12T01:06:27.156Z,59.10
2019-02-12T01:16:28.414Z,59.10
2019-02-12T01:26:30.436Z,58.90
2019-02-12T01:36:31.709Z,58.80
2019-02-12T01:46:32.962Z,58.10
2019-02-12T01:56:34.225Z,57.30
2019-02-12T02:06:36.249Z,58.20
2019-02-12T02:16:37.497Z,58.10
2019-02-12T02:26:38.760Z,54.10
2019-02-12T02:36:40.034Z,53.20
2019-02-12T02:46:41.299Z,53.80
2019-02-12T02:56:42.578Z,53.90
2019-02-12T03:06:43.858Z,53.00
2019-02-12T03:16:45.153Z,51.90
2019-02-12T03:26:46.401Z,51.40
2019-02-12T03:36:48.405Z,51.80
2019-02-12T03:46:50.425Z,52.40
2019-02-12T03:56:52.438Z,51.50
2019-02-12T04:06:54.453Z,51.10
2019-02-12T04:16:56.507Z,52.30
2019-02-12T04:26:57.778Z,52.20
2019-02-12T04:36:59.046Z,54.80
2019-02-12T04:47:01.083Z,53.60
2019-02-12T04:57:02.340Z,53.60
2019-02-12T05:07:03.613Z,54.60
2019-02-12T05:17:04.886Z,53.30
2019-02-12T21:27:23.937Z,77.20
2019-02-12T21:37:25.216Z,72.50
2019-02-12T21:47:26.480Z,77.60
2019-02-12T21:57:31.932Z,66.20
2019-02-12T22:07:29.045Z,65.30
2019-02-12T22:17:30.313Z,77.90
2019-02-12T22:27:39.866Z,72.50
2019-02-12T22:37:32.841Z,75.40
2019-02-12T22:47:34.113Z,76.20
2019-02-12T22:57:36.119Z,78.30
2019-02-12T23:07:38.153Z,77.60
2019-02-12T23:17:39.421Z,77.60
2019-02-12T23:27:40.695Z,87.30
2019-02-12T23:37:41.973Z,84.10
2019-02-12T23:47:43.247Z,81.50
2019-02-12T23:57:44.508Z,81.80
